sensor_id;sensor_type;location;lat;lon;timestamp;P1;durP1;ratioP1;P2;durP2;ratioP2
76259;SDS011;65076;52.362;6.588;2023-06-01T00:00:13;11.45;;;5.22;;
76259;SDS011;65076;52.362;6.588;2023-06-01T00:02:42;6.18;;;4.50;;
76259;SDS011;65076;52.362;6.588;2023-06-01T00:05:10;8.10;;;4.88;;
76259;SDS011;65076;52.362;6.588;2023-06-01T00:10:08;7.63;;;4.55;;
76259;SDS011;65076;52.362;6.588;2023-06-01T00:12:37;12.38;;;5.10;;
76259;SDS011;65076;52.362;6.588;2023-06-01T00:15:05;8.98;;;4.47;;
76259;SDS011;65076;52.362;6.588;2023-06-01T00:17:36;7.30;;;4.43;;
76259;SDS011;65076;52.362;6.588;2023-06-01T00:20:04;7.57;;;5.25;;
76259;SDS011;65076;52.362;6.588;2023-06-01T00:22:35;9.85;;;4.93;;
76259;SDS011;65076;52.362;6.588;2023-06-01T00:25:05;8.77;;;5.20;;
76259;SDS011;65076;52.362;6.588;2023-06-01T00:27:34;12.38;;;5.13;;
76259;SDS011;65076;52.362;6.588;2023-06-01T00:30:03;7.28;;;4.50;;
76259;SDS011;65076;52.362;6.588;2023-06-01T00:32:32;8.85;;;4.70;;
76259;SDS011;65076;52.362;6.588;2023-06-01T00:35:02;11.07;;;5.38;;
76259;SDS011;65076;52.362;6.588;2023-06-01T00:39:58;10.20;;;5.22;;
76259;SDS011;65076;52.362;6.588;2023-06-01T00:42:26;9.88;;;4.63;;
76259;SDS011;65076;52.362;6.588;2023-06-01T00:44:54;10.48;;;4.85;;
76259;SDS011;65076;52.362;6.588;2023-06-01T00:47:25;10.75;;;5.30;;
76259;SDS011;65076;52.362;6.588;2023-06-01T00:49:53;7.13;;;4.90;;
76259;SDS011;65076;52.362;6.588;2023-06-01T00:52:22;8.90;;;5.05;;
76259;SDS011;65076;52.362;6.588;2023-06-01T00:54:51;15.63;;;5.38;;
76259;SDS011;65076;52.362;6.588;2023-06-01T00:57:19;11.95;;;5.15;;
76259;SDS011;65076;52.362;6.588;2023-06-01T00:59:53;11.73;;;5.00;;
76259;SDS011;65076;52.362;6.588;2023-06-01T01:02:22;9.27;;;4.72;;
76259;SDS011;65076;52.362;6.588;2023-06-01T01:04:49;8.02;;;4.60;;
76259;SDS011;65076;52.362;6.588;2023-06-01T01:07:21;8.35;;;5.15;;
76259;SDS011;65076;52.362;6.588;2023-06-01T01:10:01;9.68;;;5.47;;
76259;SDS011;65076;52.362;6.588;2023-06-01T01:12:42;8.32;;;5.07;;
76259;SDS011;65076;52.362;6.588;2023-06-01T01:15:19;11.27;;;4.60;;
76259;SDS011;65076;52.362;6.588;2023-06-01T01:18:04;11.35;;;5.25;;
76259;SDS011;65076;52.362;6.588;2023-06-01T01:20:44;10.00;;;5.03;;
76259;SDS011;65076;52.362;6.588;2023-06-01T01:23:32;10.32;;;5.18;;
76259;SDS011;65076;52.362;6.588;2023-06-01T01:26:23;9.38;;;4.50;;
76259;SDS011;65076;52.362;6.588;2023-06-01T01:29:10;12.30;;;4.93;;
76259;SDS011;65076;52.362;6.588;2023-06-01T01:31:43;9.13;;;5.30;;
76259;SDS011;65076;52.362;6.588;2023-06-01T01:34:15;10.18;;;4.07;;
76259;SDS011;65076;52.362;6.588;2023-06-01T01:36:46;11.65;;;5.53;;
76259;SDS011;65076;52.362;6.588;2023-06-01T01:39:15;16.33;;;5.32;;
76259;SDS011;65076;52.362;6.588;2023-06-01T01:41:42;9.32;;;4.43;;
76259;SDS011;65076;52.362;6.588;2023-06-01T01:44:12;9.02;;;4.93;;
76259;SDS011;65076;52.362;6.588;2023-06-01T01:46:44;9.15;;;5.10;;
76259;SDS011;65076;52.362;6.588;2023-06-01T01:49:26;12.93;;;4.97;;
76259;SDS011;65076;52.362;6.588;2023-06-01T01:52:04;9.32;;;4.95;;
76259;SDS011;65076;52.362;6.588;2023-06-01T01:54:38;11.30;;;5.05;;
76259;SDS011;65076;52.362;6.588;2023-06-01T01:57:10;9.32;;;4.93;;
76259;SDS011;65076;52.362;6.588;2023-06-01T01:59:42;8.55;;;4.63;;
76259;SDS011;65076;52.362;6.588;2023-06-01T02:04:39;8.93;;;4.93;;
76259;SDS011;65076;52.362;6.588;2023-06-01T02:07:08;13.20;;;4.65;;
76259;SDS011;65076;52.362;6.588;2023-06-01T02:09:36;8.00;;;4.40;;
76259;SDS011;65076;52.362;6.588;2023-06-01T02:12:04;8.85;;;4.35;;
76259;SDS011;65076;52.362;6.588;2023-06-01T02:14:34;14.80;;;5.47;;
76259;SDS011;65076;52.362;6.588;2023-06-01T02:17:03;9.18;;;3.92;;
76259;SDS011;65076;52.362;6.588;2023-06-01T02:19:32;8.90;;;4.80;;
76259;SDS011;65076;52.362;6.588;2023-06-01T02:22:00;9.90;;;3.95;;
76259;SDS011;65076;52.362;6.588;2023-06-01T02:24:28;10.77;;;4.45;;
76259;SDS011;65076;52.362;6.588;2023-06-01T02:26:56;10.10;;;5.15;;
76259;SDS011;65076;52.362;6.588;2023-06-01T02:29:24;10.20;;;4.65;;
76259;SDS011;65076;52.362;6.588;2023-06-01T02:31:52;9.48;;;4.30;;
76259;SDS011;65076;52.362;6.588;2023-06-01T02:34:22;9.70;;;4.57;;
76259;SDS011;65076;52.362;6.588;2023-06-01T02:36:50;14.32;;;5.05;;
76259;SDS011;65076;52.362;6.588;2023-06-01T02:39:22;9.50;;;4.20;;
76259;SDS011;65076;52.362;6.588;2023-06-01T02:41:50;9.57;;;4.07;;
76259;SDS011;65076;52.362;6.588;2023-06-01T02:44:18;9.60;;;4.20;;
76259;SDS011;65076;52.362;6.588;2023-06-01T02:46:46;9.60;;;4.20;;
76259;SDS011;65076;52.362;6.588;2023-06-01T02:49:14;13.05;;;4.30;;
76259;SDS011;65076;52.362;6.588;2023-06-01T02:51:43;9.02;;;4.38;;
76259;SDS011;65076;52.362;6.588;2023-06-01T02:54:11;9.55;;;4.60;;
76259;SDS011;65076;52.362;6.588;2023-06-01T02:56:39;11.30;;;4.97;;
76259;SDS011;65076;52.362;6.588;2023-06-01T02:59:07;9.98;;;4.03;;
76259;SDS011;65076;52.362;6.588;2023-06-01T03:01:35;10.23;;;4.63;;
76259;SDS011;65076;52.362;6.588;2023-06-01T03:04:03;9.25;;;4.53;;
76259;SDS011;65076;52.362;6.588;2023-06-01T03:06:31;9.85;;;4.05;;
76259;SDS011;65076;52.362;6.588;2023-06-01T03:09:04;8.10;;;4.13;;
76259;SDS011;65076;52.362;6.588;2023-06-01T03:11:39;12.90;;;4.53;;
76259;SDS011;65076;52.362;6.588;2023-06-01T03:14:07;9.45;;;4.45;;
76259;SDS011;65076;52.362;6.588;2023-06-01T03:16:35;9.23;;;3.97;;
76259;SDS011;65076;52.362;6.588;2023-06-01T03:19:03;10.20;;;5.05;;
76259;SDS011;65076;52.362;6.588;2023-06-01T03:21:32;11.35;;;4.47;;
76259;SDS011;65076;52.362;6.588;2023-06-01T03:24:00;8.27;;;4.55;;
76259;SDS011;65076;52.362;6.588;2023-06-01T03:26:29;12.05;;;5.03;;
76259;SDS011;65076;52.362;6.588;2023-06-01T03:28:57;10.13;;;4.93;;
76259;SDS011;65076;52.362;6.588;2023-06-01T03:31:25;10.40;;;4.65;;
76259;SDS011;65076;52.362;6.588;2023-06-01T03:33:53;11.07;;;5.45;;
76259;SDS011;65076;52.362;6.588;2023-06-01T03:36:21;11.43;;;5.47;;
76259;SDS011;65076;52.362;6.588;2023-06-01T03:38:49;9.57;;;4.28;;
76259;SDS011;65076;52.362;6.588;2023-06-01T03:41:17;7.38;;;4.50;;
76259;SDS011;65076;52.362;6.588;2023-06-01T03:43:47;9.10;;;4.43;;
76259;SDS011;65076;52.362;6.588;2023-06-01T03:46:15;10.77;;;4.70;;
76259;SDS011;65076;52.362;6.588;2023-06-01T03:48:44;10.77;;;4.90;;
76259;SDS011;65076;52.362;6.588;2023-06-01T03:51:12;9.30;;;4.32;;
76259;SDS011;65076;52.362;6.588;2023-06-01T03:53:39;11.00;;;4.95;;
76259;SDS011;65076;52.362;6.588;2023-06-01T03:56:08;8.52;;;4.72;;
76259;SDS011;65076;52.362;6.588;2023-06-01T03:58:36;9.07;;;4.50;;
76259;SDS011;65076;52.362;6.588;2023-06-01T04:01:05;8.27;;;4.00;;
76259;SDS011;65076;52.362;6.588;2023-06-01T04:03:33;12.90;;;4.35;;
76259;SDS011;65076;52.362;6.588;2023-06-01T04:06:01;11.02;;;4.20;;
76259;SDS011;65076;52.362;6.588;2023-06-01T04:08:30;9.65;;;4.65;;
76259;SDS011;65076;52.362;6.588;2023-06-01T04:10:58;11.80;;;5.70;;
76259;SDS011;65076;52.362;6.588;2023-06-01T04:13:26;11.10;;;4.13;;
76259;SDS011;65076;52.362;6.588;2023-06-01T04:18:26;14.05;;;4.45;;
76259;SDS011;65076;52.362;6.588;2023-06-01T04:20:54;9.32;;;4.50;;
76259;SDS011;65076;52.362;6.588;2023-06-01T04:23:22;11.30;;;4.57;;
76259;SDS011;65076;52.362;6.588;2023-06-01T04:25:50;11.27;;;4.22;;
76259;SDS011;65076;52.362;6.588;2023-06-01T04:28:20;11.18;;;4.20;;
76259;SDS011;65076;52.362;6.588;2023-06-01T04:30:50;7.97;;;3.72;;
76259;SDS011;65076;52.362;6.588;2023-06-01T04:33:18;9.98;;;4.03;;
76259;SDS011;65076;52.362;6.588;2023-06-01T04:35:48;6.82;;;3.20;;
76259;SDS011;65076;52.362;6.588;2023-06-01T04:38:19;9.40;;;3.65;;
76259;SDS011;65076;52.362;6.588;2023-06-01T04:40:47;9.65;;;4.30;;
76259;SDS011;65076;52.362;6.588;2023-06-01T04:43:15;11.93;;;4.10;;
76259;SDS011;65076;52.362;6.588;2023-06-01T04:45:45;13.05;;;4.45;;
76259;SDS011;65076;52.362;6.588;2023-06-01T04:48:13;10.10;;;3.90;;
76259;SDS011;65076;52.362;6.588;2023-06-01T04:50:43;7.90;;;3.90;;
76259;SDS011;65076;52.362;6.588;2023-06-01T04:53:12;12.57;;;4.95;;
76259;SDS011;65076;52.362;6.588;2023-06-01T04:55:40;8.43;;;3.70;;
76259;SDS011;65076;52.362;6.588;2023-06-01T04:58:10;7.47;;;3.75;;
76259;SDS011;65076;52.362;6.588;2023-06-01T05:00:39;9.15;;;4.07;;
76259;SDS011;65076;52.362;6.588;2023-06-01T05:03:07;8.43;;;3.75;;
76259;SDS011;65076;52.362;6.588;2023-06-01T05:05:35;10.07;;;4.28;;
76259;SDS011;65076;52.362;6.588;2023-06-01T05:08:06;7.47;;;4.05;;
76259;SDS011;65076;52.362;6.588;2023-06-01T05:10:35;10.75;;;4.35;;
76259;SDS011;65076;52.362;6.588;2023-06-01T05:13:05;10.80;;;4.07;;
76259;SDS011;65076;52.362;6.588;2023-06-01T05:15:32;9.68;;;4.90;;
76259;SDS011;65076;52.362;6.588;2023-06-01T05:18:00;10.55;;;4.30;;
76259;SDS011;65076;52.362;6.588;2023-06-01T05:20:28;9.65;;;3.78;;
76259;SDS011;65076;52.362;6.588;2023-06-01T05:22:56;8.60;;;3.58;;
76259;SDS011;65076;52.362;6.588;2023-06-01T05:25:24;10.27;;;4.03;;
76259;SDS011;65076;52.362;6.588;2023-06-01T05:27:54;9.02;;;4.05;;
76259;SDS011;65076;52.362;6.588;2023-06-01T05:30:22;9.02;;;3.63;;
76259;SDS011;65076;52.362;6.588;2023-06-01T05:32:49;8.52;;;3.55;;
76259;SDS011;65076;52.362;6.588;2023-06-01T05:35:17;7.72;;;3.83;;
76259;SDS011;65076;52.362;6.588;2023-06-01T05:37:46;11.27;;;3.97;;
76259;SDS011;65076;52.362;6.588;2023-06-01T05:40:14;8.55;;;3.60;;
76259;SDS011;65076;52.362;6.588;2023-06-01T05:42:44;7.30;;;4.07;;
76259;SDS011;65076;52.362;6.588;2023-06-01T05:45:13;6.75;;;3.78;;
76259;SDS011;65076;52.362;6.588;2023-06-01T05:47:42;8.68;;;3.70;;
76259;SDS011;65076;52.362;6.588;2023-06-01T05:50:10;10.00;;;3.22;;
76259;SDS011;65076;52.362;6.588;2023-06-01T05:52:38;7.43;;;3.95;;
76259;SDS011;65076;52.362;6.588;2023-06-01T05:55:08;6.15;;;3.45;;
76259;SDS011;65076;52.362;6.588;2023-06-01T05:57:36;8.23;;;3.60;;
76259;SDS011;65076;52.362;6.588;2023-06-01T06:00:05;7.68;;;3.88;;
76259;SDS011;65076;52.362;6.588;2023-06-01T06:02:37;9.38;;;3.15;;
76259;SDS011;65076;52.362;6.588;2023-06-01T06:05:06;9.95;;;4.25;;
76259;SDS011;65076;52.362;6.588;2023-06-01T06:07:35;6.22;;;3.47;;
76259;SDS011;65076;52.362;6.588;2023-06-01T06:10:03;10.55;;;3.90;;
76259;SDS011;65076;52.362;6.588;2023-06-01T06:12:32;9.18;;;4.07;;
76259;SDS011;65076;52.362;6.588;2023-06-01T06:15:00;10.57;;;4.95;;
76259;SDS011;65076;52.362;6.588;2023-06-01T06:17:28;8.95;;;4.75;;
76259;SDS011;65076;52.362;6.588;2023-06-01T06:19:57;8.75;;;4.13;;
76259;SDS011;65076;52.362;6.588;2023-06-01T06:22:25;7.60;;;4.60;;
76259;SDS011;65076;52.362;6.588;2023-06-01T06:24:53;8.40;;;4.20;;
76259;SDS011;65076;52.362;6.588;2023-06-01T06:27:21;8.75;;;4.68;;
76259;SDS011;65076;52.362;6.588;2023-06-01T06:29:49;8.10;;;4.15;;
76259;SDS011;65076;52.362;6.588;2023-06-01T06:32:16;14.23;;;4.43;;
76259;SDS011;65076;52.362;6.588;2023-06-01T06:34:47;6.75;;;3.67;;
76259;SDS011;65076;52.362;6.588;2023-06-01T06:37:17;7.40;;;3.30;;
76259;SDS011;65076;52.362;6.588;2023-06-01T06:39:45;8.40;;;3.85;;
76259;SDS011;65076;52.362;6.588;2023-06-01T06:42:13;7.32;;;3.72;;
76259;SDS011;65076;52.362;6.588;2023-06-01T06:44:41;7.40;;;4.18;;
76259;SDS011;65076;52.362;6.588;2023-06-01T06:47:09;12.48;;;4.03;;
76259;SDS011;65076;52.362;6.588;2023-06-01T06:49:41;6.05;;;3.22;;
76259;SDS011;65076;52.362;6.588;2023-06-01T06:52:09;7.07;;;3.15;;
76259;SDS011;65076;52.362;6.588;2023-06-01T06:54:39;6.70;;;3.30;;
76259;SDS011;65076;52.362;6.588;2023-06-01T06:57:07;8.20;;;3.63;;
76259;SDS011;65076;52.362;6.588;2023-06-01T06:59:36;5.53;;;3.05;;
76259;SDS011;65076;52.362;6.588;2023-06-01T07:02:05;6.22;;;3.20;;
76259;SDS011;65076;52.362;6.588;2023-06-01T07:04:33;6.60;;;3.53;;
76259;SDS011;65076;52.362;6.588;2023-06-01T07:07:01;5.78;;;3.42;;
76259;SDS011;65076;52.362;6.588;2023-06-01T07:09:30;6.30;;;2.97;;
76259;SDS011;65076;52.362;6.588;2023-06-01T07:12:00;9.60;;;3.17;;
76259;SDS011;65076;52.362;6.588;2023-06-01T07:14:32;5.75;;;3.00;;
76259;SDS011;65076;52.362;6.588;2023-06-01T07:17:01;7.35;;;2.88;;
76259;SDS011;65076;52.362;6.588;2023-06-01T07:19:29;6.25;;;2.72;;
76259;SDS011;65076;52.362;6.588;2023-06-01T07:21:59;6.75;;;3.30;;
76259;SDS011;65076;52.362;6.588;2023-06-01T07:24:28;5.13;;;3.28;;
76259;SDS011;65076;52.362;6.588;2023-06-01T07:26:56;8.95;;;3.10;;
76259;SDS011;65076;52.362;6.588;2023-06-01T07:29:26;6.13;;;3.03;;
76259;SDS011;65076;52.362;6.588;2023-06-01T07:31:54;4.72;;;3.40;;
76259;SDS011;65076;52.362;6.588;2023-06-01T07:34:22;7.82;;;3.22;;
76259;SDS011;65076;52.362;6.588;2023-06-01T07:36:51;5.88;;;3.20;;
76259;SDS011;65076;52.362;6.588;2023-06-01T07:39:24;5.47;;;3.08;;
76259;SDS011;65076;52.362;6.588;2023-06-01T07:41:53;9.07;;;3.70;;
76259;SDS011;65076;52.362;6.588;2023-06-01T07:44:21;5.93;;;3.70;;
76259;SDS011;65076;52.362;6.588;2023-06-01T07:46:51;7.78;;;3.63;;
76259;SDS011;65076;52.362;6.588;2023-06-01T07:49:19;7.88;;;3.42;;
76259;SDS011;65076;52.362;6.588;2023-06-01T07:51:47;5.68;;;3.08;;
76259;SDS011;65076;52.362;6.588;2023-06-01T07:54:17;8.20;;;3.55;;
76259;SDS011;65076;52.362;6.588;2023-06-01T07:56:47;8.25;;;3.35;;
76259;SDS011;65076;52.362;6.588;2023-06-01T07:59:15;11.43;;;4.20;;
76259;SDS011;65076;52.362;6.588;2023-06-01T08:01:42;9.68;;;4.40;;
76259;SDS011;65076;52.362;6.588;2023-06-01T08:04:12;6.70;;;3.90;;
76259;SDS011;65076;52.362;6.588;2023-06-01T08:06:40;10.50;;;3.70;;
76259;SDS011;65076;52.362;6.588;2023-06-01T08:09:08;8.55;;;3.85;;
76259;SDS011;65076;52.362;6.588;2023-06-01T08:11:36;6.85;;;3.67;;
76259;SDS011;65076;52.362;6.588;2023-06-01T08:14:04;6.93;;;4.35;;
76259;SDS011;65076;52.362;6.588;2023-06-01T08:16:33;9.50;;;3.85;;
76259;SDS011;65076;52.362;6.588;2023-06-01T08:19:03;8.60;;;3.50;;
76259;SDS011;65076;52.362;6.588;2023-06-01T08:21:32;5.75;;;3.38;;
76259;SDS011;65076;52.362;6.588;2023-06-01T08:24:01;8.43;;;3.55;;
76259;SDS011;65076;52.362;6.588;2023-06-01T08:26:29;10.68;;;4.38;;
76259;SDS011;65076;52.362;6.588;2023-06-01T08:28:57;8.77;;;3.65;;
76259;SDS011;65076;52.362;6.588;2023-06-01T08:31:25;9.38;;;3.90;;
76259;SDS011;65076;52.362;6.588;2023-06-01T08:33:53;8.35;;;3.63;;
76259;SDS011;65076;52.362;6.588;2023-06-01T08:36:22;10.13;;;3.60;;
76259;SDS011;65076;52.362;6.588;2023-06-01T08:38:53;6.63;;;3.10;;
76259;SDS011;65076;52.362;6.588;2023-06-01T08:41:24;12.40;;;3.33;;
76259;SDS011;65076;52.362;6.588;2023-06-01T08:44:02;6.68;;;3.72;;
76259;SDS011;65076;52.362;6.588;2023-06-01T08:46:32;6.60;;;3.40;;
76259;SDS011;65076;52.362;6.588;2023-06-01T08:49:01;10.85;;;3.90;;
76259;SDS011;65076;52.362;6.588;2023-06-01T08:51:29;10.50;;;4.50;;
76259;SDS011;65076;52.362;6.588;2023-06-01T08:54:05;7.40;;;3.90;;
76259;SDS011;65076;52.362;6.588;2023-06-01T08:56:37;9.20;;;3.88;;
76259;SDS011;65076;52.362;6.588;2023-06-01T08:59:09;10.18;;;4.40;;
76259;SDS011;65076;52.362;6.588;2023-06-01T09:01:39;7.32;;;4.07;;
76259;SDS011;65076;52.362;6.588;2023-06-01T09:04:08;8.52;;;4.68;;
76259;SDS011;65076;52.362;6.588;2023-06-01T09:06:36;8.15;;;3.65;;
76259;SDS011;65076;52.362;6.588;2023-06-01T09:09:06;7.30;;;4.07;;
76259;SDS011;65076;52.362;6.588;2023-06-01T09:11:37;8.32;;;4.28;;
76259;SDS011;65076;52.362;6.588;2023-06-01T09:14:18;5.63;;;2.83;;
76259;SDS011;65076;52.362;6.588;2023-06-01T09:16:49;6.32;;;3.40;;
76259;SDS011;65076;52.362;6.588;2023-06-01T09:19:18;7.03;;;2.80;;
76259;SDS011;65076;52.362;6.588;2023-06-01T09:21:56;5.57;;;3.65;;
76259;SDS011;65076;52.362;6.588;2023-06-01T09:24:27;4.90;;;2.85;;
76259;SDS011;65076;52.362;6.588;2023-06-01T09:29:29;5.63;;;2.95;;
76259;SDS011;65076;52.362;6.588;2023-06-01T09:31:57;6.72;;;3.15;;
76259;SDS011;65076;52.362;6.588;2023-06-01T09:34:27;7.55;;;3.42;;
76259;SDS011;65076;52.362;6.588;2023-06-01T09:36:57;6.30;;;3.10;;
76259;SDS011;65076;52.362;6.588;2023-06-01T09:39:35;5.00;;;2.80;;
76259;SDS011;65076;52.362;6.588;2023-06-01T09:42:03;6.00;;;3.08;;
76259;SDS011;65076;52.362;6.588;2023-06-01T09:47:03;5.00;;;2.88;;
76259;SDS011;65076;52.362;6.588;2023-06-01T09:49:34;5.45;;;2.80;;
76259;SDS011;65076;52.362;6.588;2023-06-01T09:52:09;7.95;;;2.83;;
76259;SDS011;65076;52.362;6.588;2023-06-01T09:54:43;4.25;;;3.05;;
76259;SDS011;65076;52.362;6.588;2023-06-01T09:57:19;6.43;;;2.72;;
76259;SDS011;65076;52.362;6.588;2023-06-01T09:59:49;7.43;;;3.60;;
76259;SDS011;65076;52.362;6.588;2023-06-01T10:02:18;5.10;;;3.00;;
76259;SDS011;65076;52.362;6.588;2023-06-01T10:04:50;7.18;;;3.08;;
76259;SDS011;65076;52.362;6.588;2023-06-01T10:07:21;4.07;;;2.63;;
76259;SDS011;65076;52.362;6.588;2023-06-01T10:09:53;5.35;;;2.72;;
76259;SDS011;65076;52.362;6.588;2023-06-01T10:12:25;6.75;;;3.13;;
76259;SDS011;65076;52.362;6.588;2023-06-01T10:14:55;6.88;;;2.92;;
76259;SDS011;65076;52.362;6.588;2023-06-01T10:19:54;6.80;;;3.40;;
76259;SDS011;65076;52.362;6.588;2023-06-01T10:22:24;5.47;;;2.60;;
76259;SDS011;65076;52.362;6.588;2023-06-01T10:24:55;6.45;;;3.00;;
76259;SDS011;65076;52.362;6.588;2023-06-01T10:27:27;4.93;;;3.20;;
76259;SDS011;65076;52.362;6.588;2023-06-01T10:30:10;8.60;;;3.10;;
76259;SDS011;65076;52.362;6.588;2023-06-01T10:32:48;4.65;;;3.22;;
76259;SDS011;65076;52.362;6.588;2023-06-01T10:38:26;6.43;;;2.85;;
76259;SDS011;65076;52.362;6.588;2023-06-01T10:43:57;4.78;;;2.63;;
76259;SDS011;65076;52.362;6.588;2023-06-01T10:46:35;5.80;;;3.30;;
76259;SDS011;65076;52.362;6.588;2023-06-01T10:49:11;5.22;;;3.10;;
76259;SDS011;65076;52.362;6.588;2023-06-01T10:51:39;5.50;;;2.97;;
76259;SDS011;65076;52.362;6.588;2023-06-01T10:54:23;7.82;;;3.08;;
76259;SDS011;65076;52.362;6.588;2023-06-01T11:02:44;4.65;;;2.78;;
76259;SDS011;65076;52.362;6.588;2023-06-01T11:05:41;5.95;;;3.22;;
76259;SDS011;65076;52.362;6.588;2023-06-01T11:14:29;3.10;;;1.90;;
76259;SDS011;65076;52.362;6.588;2023-06-01T11:20:02;3.90;;;2.40;;
76259;SDS011;65076;52.362;6.588;2023-06-01T11:22:38;6.65;;;2.65;;
76259;SDS011;65076;52.362;6.588;2023-06-01T11:25:06;5.15;;;2.33;;
76259;SDS011;65076;52.362;6.588;2023-06-01T11:27:41;5.43;;;2.60;;
76259;SDS011;65076;52.362;6.588;2023-06-01T11:30:17;5.07;;;2.50;;
76259;SDS011;65076;52.362;6.588;2023-06-01T11:32:48;3.67;;;2.40;;
76259;SDS011;65076;52.362;6.588;2023-06-01T11:35:21;4.70;;;2.75;;
76259;SDS011;65076;52.362;6.588;2023-06-01T11:37:52;8.88;;;2.20;;
76259;SDS011;65076;52.362;6.588;2023-06-01T11:40:22;3.80;;;2.28;;
76259;SDS011;65076;52.362;6.588;2023-06-01T11:42:58;3.58;;;2.20;;
76259;SDS011;65076;52.362;6.588;2023-06-01T11:45:27;3.25;;;2.40;;
76259;SDS011;65076;52.362;6.588;2023-06-01T11:47:55;4.53;;;2.58;;
76259;SDS011;65076;52.362;6.588;2023-06-01T11:50:24;4.05;;;2.70;;
76259;SDS011;65076;52.362;6.588;2023-06-01T11:52:54;4.93;;;2.78;;
76259;SDS011;65076;52.362;6.588;2023-06-01T11:55:23;4.13;;;2.35;;
76259;SDS011;65076;52.362;6.588;2023-06-01T11:57:51;7.85;;;2.67;;
76259;SDS011;65076;52.362;6.588;2023-06-01T12:00:19;6.60;;;2.65;;
76259;SDS011;65076;52.362;6.588;2023-06-01T12:02:51;3.95;;;2.20;;
76259;SDS011;65076;52.362;6.588;2023-06-01T12:05:38;3.97;;;2.22;;
76259;SDS011;65076;52.362;6.588;2023-06-01T12:08:12;4.18;;;2.40;;
76259;SDS011;65076;52.362;6.588;2023-06-01T12:10:43;4.35;;;2.15;;
76259;SDS011;65076;52.362;6.588;2023-06-01T12:13:13;3.85;;;1.95;;
76259;SDS011;65076;52.362;6.588;2023-06-01T12:15:41;3.20;;;1.98;;
76259;SDS011;65076;52.362;6.588;2023-06-01T12:18:12;2.40;;;2.10;;
76259;SDS011;65076;52.362;6.588;2023-06-01T12:20:40;2.97;;;1.90;;
76259;SDS011;65076;52.362;6.588;2023-06-01T12:23:12;3.85;;;2.03;;
76259;SDS011;65076;52.362;6.588;2023-06-01T12:25:47;3.67;;;2.20;;
76259;SDS011;65076;52.362;6.588;2023-06-01T12:28:21;3.65;;;1.90;;
76259;SDS011;65076;52.362;6.588;2023-06-01T12:33:40;3.63;;;2.13;;
76259;SDS011;65076;52.362;6.588;2023-06-01T12:36:10;5.53;;;2.72;;
76259;SDS011;65076;52.362;6.588;2023-06-01T12:38:57;4.45;;;2.25;;
76259;SDS011;65076;52.362;6.588;2023-06-01T12:41:26;2.80;;;2.05;;
76259;SDS011;65076;52.362;6.588;2023-06-01T12:43:55;4.88;;;2.45;;
76259;SDS011;65076;52.362;6.588;2023-06-01T12:46:26;3.97;;;2.30;;
76259;SDS011;65076;52.362;6.588;2023-06-01T12:51:42;7.35;;;2.80;;
76259;SDS011;65076;52.362;6.588;2023-06-01T12:54:11;5.10;;;2.65;;
76259;SDS011;65076;52.362;6.588;2023-06-01T12:56:39;11.45;;;3.08;;
76259;SDS011;65076;52.362;6.588;2023-06-01T12:59:07;5.80;;;2.67;;
76259;SDS011;65076;52.362;6.588;2023-06-01T13:01:36;8.20;;;3.70;;
76259;SDS011;65076;52.362;6.588;2023-06-01T13:04:05;6.20;;;2.90;;
76259;SDS011;65076;52.362;6.588;2023-06-01T13:06:35;6.32;;;2.65;;
76259;SDS011;65076;52.362;6.588;2023-06-01T13:09:04;3.88;;;2.78;;
76259;SDS011;65076;52.362;6.588;2023-06-01T13:11:33;4.80;;;2.75;;
76259;SDS011;65076;52.362;6.588;2023-06-01T13:14:01;5.72;;;3.10;;
76259;SDS011;65076;52.362;6.588;2023-06-01T13:16:30;3.90;;;2.45;;
76259;SDS011;65076;52.362;6.588;2023-06-01T13:18:58;5.05;;;2.80;;
76259;SDS011;65076;52.362;6.588;2023-06-01T13:21:26;5.57;;;2.08;;
76259;SDS011;65076;52.362;6.588;2023-06-01T13:23:55;4.60;;;2.50;;
76259;SDS011;65076;52.362;6.588;2023-06-01T13:26:25;4.53;;;2.72;;
76259;SDS011;65076;52.362;6.588;2023-06-01T13:28:54;4.63;;;2.72;;
76259;SDS011;65076;52.362;6.588;2023-06-01T13:31:22;4.85;;;2.92;;
76259;SDS011;65076;52.362;6.588;2023-06-01T13:33:50;4.63;;;2.70;;
76259;SDS011;65076;52.362;6.588;2023-06-01T13:36:20;4.72;;;2.47;;
76259;SDS011;65076;52.362;6.588;2023-06-01T13:38:48;4.70;;;2.22;;
76259;SDS011;65076;52.362;6.588;2023-06-01T13:41:17;7.78;;;2.85;;
76259;SDS011;65076;52.362;6.588;2023-06-01T13:43:45;4.80;;;2.55;;
76259;SDS011;65076;52.362;6.588;2023-06-01T13:46:13;4.18;;;2.25;;
76259;SDS011;65076;52.362;6.588;2023-06-01T13:48:42;6.85;;;2.10;;
76259;SDS011;65076;52.362;6.588;2023-06-01T13:51:10;4.60;;;2.65;;
76259;SDS011;65076;52.362;6.588;2023-06-01T13:53:38;5.22;;;2.13;;
76259;SDS011;65076;52.362;6.588;2023-06-01T13:56:05;4.28;;;1.83;;
76259;SDS011;65076;52.362;6.588;2023-06-01T13:58:35;4.00;;;1.70;;
76259;SDS011;65076;52.362;6.588;2023-06-01T14:01:03;3.63;;;2.10;;
76259;SDS011;65076;52.362;6.588;2023-06-01T14:03:32;5.18;;;2.65;;
76259;SDS011;65076;52.362;6.588;2023-06-01T14:06:00;7.25;;;2.72;;
76259;SDS011;65076;52.362;6.588;2023-06-01T14:08:28;7.00;;;2.88;;
76259;SDS011;65076;52.362;6.588;2023-06-01T14:10:56;6.85;;;2.28;;
76259;SDS011;65076;52.362;6.588;2023-06-01T14:13:24;4.72;;;1.98;;
76259;SDS011;65076;52.362;6.588;2023-06-01T14:15:54;4.13;;;2.08;;
76259;SDS011;65076;52.362;6.588;2023-06-01T14:18:22;11.57;;;3.08;;
76259;SDS011;65076;52.362;6.588;2023-06-01T14:20:49;4.38;;;2.08;;
76259;SDS011;65076;52.362;6.588;2023-06-01T14:23:18;4.78;;;2.40;;
76259;SDS011;65076;52.362;6.588;2023-06-01T14:25:46;4.90;;;2.20;;
76259;SDS011;65076;52.362;6.588;2023-06-01T14:28:14;3.92;;;2.25;;
76259;SDS011;65076;52.362;6.588;2023-06-01T14:30:42;5.95;;;2.55;;
76259;SDS011;65076;52.362;6.588;2023-06-01T14:33:14;5.18;;;2.10;;
76259;SDS011;65076;52.362;6.588;2023-06-01T14:35:43;5.75;;;2.40;;
76259;SDS011;65076;52.362;6.588;2023-06-01T14:38:11;9.50;;;2.72;;
76259;SDS011;65076;52.362;6.588;2023-06-01T14:40:39;6.30;;;2.58;;
76259;SDS011;65076;52.362;6.588;2023-06-01T14:43:07;6.78;;;2.53;;
76259;SDS011;65076;52.362;6.588;2023-06-01T14:45:35;6.45;;;2.42;;
76259;SDS011;65076;52.362;6.588;2023-06-01T14:48:03;7.55;;;2.45;;
76259;SDS011;65076;52.362;6.588;2023-06-01T14:50:32;6.22;;;2.30;;
76259;SDS011;65076;52.362;6.588;2023-06-01T14:53:00;7.85;;;2.30;;
76259;SDS011;65076;52.362;6.588;2023-06-01T14:55:29;6.18;;;2.45;;
76259;SDS011;65076;52.362;6.588;2023-06-01T14:57:57;8.15;;;2.13;;
76259;SDS011;65076;52.362;6.588;2023-06-01T15:00:26;7.47;;;2.20;;
76259;SDS011;65076;52.362;6.588;2023-06-01T15:02:55;5.43;;;2.65;;
76259;SDS011;65076;52.362;6.588;2023-06-01T15:05:23;5.25;;;2.42;;
76259;SDS011;65076;52.362;6.588;2023-06-01T15:07:52;5.32;;;2.35;;
76259;SDS011;65076;52.362;6.588;2023-06-01T15:10:20;7.95;;;2.75;;
76259;SDS011;65076;52.362;6.588;2023-06-01T15:12:48;5.00;;;2.28;;
76259;SDS011;65076;52.362;6.588;2023-06-01T15:15:17;7.60;;;2.40;;
76259;SDS011;65076;52.362;6.588;2023-06-01T15:17:46;4.10;;;2.00;;
76259;SDS011;65076;52.362;6.588;2023-06-01T15:20:14;6.28;;;2.63;;
76259;SDS011;65076;52.362;6.588;2023-06-01T15:22:42;4.63;;;2.45;;
76259;SDS011;65076;52.362;6.588;2023-06-01T15:25:11;5.47;;;2.33;;
76259;SDS011;65076;52.362;6.588;2023-06-01T15:27:39;6.00;;;2.33;;
76259;SDS011;65076;52.362;6.588;2023-06-01T15:30:07;6.97;;;2.53;;
76259;SDS011;65076;52.362;6.588;2023-06-01T15:32:37;4.32;;;2.25;;
76259;SDS011;65076;52.362;6.588;2023-06-01T15:35:05;4.88;;;2.42;;
76259;SDS011;65076;52.362;6.588;2023-06-01T15:37:34;6.90;;;2.78;;
76259;SDS011;65076;52.362;6.588;2023-06-01T15:40:04;5.45;;;2.55;;
76259;SDS011;65076;52.362;6.588;2023-06-01T15:42:43;6.95;;;2.50;;
76259;SDS011;65076;52.362;6.588;2023-06-01T15:45:12;8.35;;;2.55;;